sensor_id;sensor_type;location;lat;lon;timestamp;P1;durP1;ratioP1;P2;durP2;ratioP2
18796;SDS011;9526;52.612;13.300;2022-12-18T00:00:43;64.67;;;21.17;;
18796;SDS011;9526;52.612;13.300;2022-12-18T00:03:08;67.37;;;20.43;;
18796;SDS011;9526;52.612;13.300;2022-12-18T00:05:35;61.90;;;20.93;;
18796;SDS011;9526;52.612;13.300;2022-12-18T00:07:59;64.83;;;20.40;;
18796;SDS011;9526;52.612;13.300;2022-12-18T00:10:22;64.53;;;21.33;;
18796;SDS011;9526;52.612;13.300;2022-12-18T00:12:46;61.40;;;20.27;;
18796;SDS011;9526;52.612;13.300;2022-12-18T00:15:10;65.77;;;21.37;;
18796;SDS011;9526;52.612;13.300;2022-12-18T00:17:33;70.43;;;22.40;;
18796;SDS011;9526;52.612;13.300;2022-12-18T00:19:57;64.67;;;21.77;;
18796;SDS011;9526;52.612;13.300;2022-12-18T00:22:22;63.23;;;21.47;;
18796;SDS011;9526;52.612;13.300;2022-12-18T00:24:46;78.07;;;22.17;;
18796;SDS011;9526;52.612;13.300;2022-12-18T00:27:09;71.40;;;21.30;;
18796;SDS011;9526;52.612;13.300;2022-12-18T00:29:33;74.57;;;21.20;;
18796;SDS011;9526;52.612;13.300;2022-12-18T00:31:57;70.97;;;23.63;;
18796;SDS011;9526;52.612;13.300;2022-12-18T00:34:21;75.17;;;22.63;;
18796;SDS011;9526;52.612;13.300;2022-12-18T00:36:47;70.67;;;20.77;;
18796;SDS011;9526;52.612;13.300;2022-12-18T00:39:12;77.57;;;22.70;;
18796;SDS011;9526;52.612;13.300;2022-12-18T00:41:38;64.13;;;19.33;;
18796;SDS011;9526;52.612;13.300;2022-12-18T00:44:20;66.57;;;21.57;;
18796;SDS011;9526;52.612;13.300;2022-12-18T00:46:45;71.50;;;20.97;;
18796;SDS011;9526;52.612;13.300;2022-12-18T00:49:10;58.43;;;18.17;;
18796;SDS011;9526;52.612;13.300;2022-12-18T00:51:33;62.50;;;19.63;;
18796;SDS011;9526;52.612;13.300;2022-12-18T00:53:57;56.13;;;17.67;;
18796;SDS011;9526;52.612;13.300;2022-12-18T00:56:23;59.00;;;16.37;;
18796;SDS011;9526;52.612;13.300;2022-12-18T00:58:47;67.93;;;20.43;;
18796;SDS011;9526;52.612;13.300;2022-12-18T01:01:12;62.13;;;20.00;;
18796;SDS011;9526;52.612;13.300;2022-12-18T01:03:36;74.33;;;21.73;;
18796;SDS011;9526;52.612;13.300;2022-12-18T01:06:04;59.20;;;18.87;;
18796;SDS011;9526;52.612;13.300;2022-12-18T01:08:29;57.87;;;20.23;;
18796;SDS011;9526;52.612;13.300;2022-12-18T01:10:53;62.30;;;19.83;;
18796;SDS011;9526;52.612;13.300;2022-12-18T01:13:18;61.00;;;20.07;;
18796;SDS011;9526;52.612;13.300;2022-12-18T01:15:47;61.93;;;21.10;;
18796;SDS011;9526;52.612;13.300;2022-12-18T01:18:12;65.10;;;20.17;;
18796;SDS011;9526;52.612;13.300;2022-12-18T01:20:35;61.67;;;21.53;;
18796;SDS011;9526;52.612;13.300;2022-12-18T01:23:01;68.40;;;21.10;;
18796;SDS011;9526;52.612;13.300;2022-12-18T01:25:24;65.70;;;20.83;;
18796;SDS011;9526;52.612;13.300;2022-12-18T01:27:48;64.07;;;19.07;;
18796;SDS011;9526;52.612;13.300;2022-12-18T01:30:13;38.13;;;12.17;;
18796;SDS011;9526;52.612;13.300;2022-12-18T01:32:37;57.20;;;18.37;;
18796;SDS011;9526;52.612;13.300;2022-12-18T01:35:01;62.00;;;18.70;;
18796;SDS011;9526;52.612;13.300;2022-12-18T01:37:25;55.97;;;17.73;;
18796;SDS011;9526;52.612;13.300;2022-12-18T01:39:49;59.77;;;19.93;;
18796;SDS011;9526;52.612;13.300;2022-12-18T01:42:15;58.87;;;17.57;;
18796;SDS011;9526;52.612;13.300;2022-12-18T01:47:42;57.50;;;18.93;;
18796;SDS011;9526;52.612;13.300;2022-12-18T01:50:11;60.20;;;18.90;;
18796;SDS011;9526;52.612;13.300;2022-12-18T01:52:38;67.77;;;19.10;;
18796;SDS011;9526;52.612;13.300;2022-12-18T01:55:06;63.50;;;19.50;;
18796;SDS011;9526;52.612;13.300;2022-12-18T01:57:31;69.27;;;20.60;;
18796;SDS011;9526;52.612;13.300;2022-12-18T01:59:56;69.07;;;20.37;;
18796;SDS011;9526;52.612;13.300;2022-12-18T02:02:33;66.77;;;20.27;;
18796;SDS011;9526;52.612;13.300;2022-12-18T02:04:58;53.73;;;16.53;;
18796;SDS011;9526;52.612;13.300;2022-12-18T02:07:24;60.33;;;18.43;;
18796;SDS011;9526;52.612;13.300;2022-12-18T02:10:00;48.23;;;16.03;;
18796;SDS011;9526;52.612;13.300;2022-12-18T02:12:30;58.77;;;18.50;;
18796;SDS011;9526;52.612;13.300;2022-12-18T02:15:07;57.57;;;16.63;;
18796;SDS011;9526;52.612;13.300;2022-12-18T02:17:39;69.80;;;20.10;;
18796;SDS011;9526;52.612;13.300;2022-12-18T02:20:12;59.20;;;18.30;;
18796;SDS011;9526;52.612;13.300;2022-12-18T02:22:44;64.67;;;20.10;;
18796;SDS011;9526;52.612;13.300;2022-12-18T02:25:26;68.20;;;19.60;;
18796;SDS011;9526;52.612;13.300;2022-12-18T02:28:05;59.63;;;17.73;;
18796;SDS011;9526;52.612;13.300;2022-12-18T02:30:33;65.47;;;18.87;;
18796;SDS011;9526;52.612;13.300;2022-12-18T02:33:02;49.03;;;16.80;;
18796;SDS011;9526;52.612;13.300;2022-12-18T02:35:30;63.13;;;18.53;;
18796;SDS011;9526;52.612;13.300;2022-12-18T02:37:55;60.97;;;17.43;;
18796;SDS011;9526;52.612;13.300;2022-12-18T02:40:24;54.67;;;18.10;;
18796;SDS011;9526;52.612;13.300;2022-12-18T02:42:52;65.93;;;20.10;;
18796;SDS011;9526;52.612;13.300;2022-12-18T02:45:18;65.77;;;19.47;;
18796;SDS011;9526;52.612;13.300;2022-12-18T02:47:43;69.83;;;20.77;;
18796;SDS011;9526;52.612;13.300;2022-12-18T02:50:13;81.30;;;21.73;;
18796;SDS011;9526;52.612;13.300;2022-12-18T02:52:52;68.70;;;20.77;;
18796;SDS011;9526;52.612;13.300;2022-12-18T02:55:30;72.10;;;20.60;;
18796;SDS011;9526;52.612;13.300;2022-12-18T02:58:09;64.80;;;18.60;;
18796;SDS011;9526;52.612;13.300;2022-12-18T03:00:43;72.93;;;21.83;;
18796;SDS011;9526;52.612;13.300;2022-12-18T03:03:15;66.07;;;20.10;;
18796;SDS011;9526;52.612;13.300;2022-12-18T03:05:47;74.07;;;22.10;;
18796;SDS011;9526;52.612;13.300;2022-12-18T03:08:18;71.33;;;21.17;;
18796;SDS011;9526;52.612;13.300;2022-12-18T03:10:45;70.27;;;20.70;;
18796;SDS011;9526;52.612;13.300;2022-12-18T03:13:18;72.43;;;20.17;;
18796;SDS011;9526;52.612;13.300;2022-12-18T03:15:55;66.17;;;19.53;;
18796;SDS011;9526;52.612;13.300;2022-12-18T03:18:23;68.40;;;19.67;;
18796;SDS011;9526;52.612;13.300;2022-12-18T03:20:50;70.80;;;19.83;;
18796;SDS011;9526;52.612;13.300;2022-12-18T03:23:18;61.70;;;19.33;;
18796;SDS011;9526;52.612;13.300;2022-12-18T03:25:48;68.63;;;19.57;;
18796;SDS011;9526;52.612;13.300;2022-12-18T03:28:16;65.83;;;20.27;;
18796;SDS011;9526;52.612;13.300;2022-12-18T03:30:51;58.93;;;18.10;;
18796;SDS011;9526;52.612;13.300;2022-12-18T03:33:24;70.83;;;21.30;;
18796;SDS011;9526;52.612;13.300;2022-12-18T03:35:51;77.03;;;20.77;;
18796;SDS011;9526;52.612;13.300;2022-12-18T03:38:16;73.33;;;20.27;;
18796;SDS011;9526;52.612;13.300;2022-12-18T03:40:45;70.17;;;19.37;;
18796;SDS011;9526;52.612;13.300;2022-12-18T03:43:19;68.17;;;20.17;;
18796;SDS011;9526;52.612;13.300;2022-12-18T03:45:54;56.73;;;17.80;;
18796;SDS011;9526;52.612;13.300;2022-12-18T03:48:28;69.10;;;21.53;;
18796;SDS011;9526;52.612;13.300;2022-12-18T03:51:04;71.50;;;20.33;;
18796;SDS011;9526;52.612;13.300;2022-12-18T03:53:33;77.40;;;21.23;;
18796;SDS011;9526;52.612;13.300;2022-12-18T03:56:05;77.33;;;22.00;;
18796;SDS011;9526;52.612;13.300;2022-12-18T03:58:34;74.20;;;22.07;;
18796;SDS011;9526;52.612;13.300;2022-12-18T04:01:16;80.77;;;23.33;;
18796;SDS011;9526;52.612;13.300;2022-12-18T04:03:44;79.57;;;21.87;;
18796;SDS011;9526;52.612;13.300;2022-12-18T04:06:13;77.77;;;21.70;;
18796;SDS011;9526;52.612;13.300;2022-12-18T04:08:38;67.40;;;21.03;;
18796;SDS011;9526;52.612;13.300;2022-12-18T04:11:06;67.30;;;20.87;;
18796;SDS011;9526;52.612;13.300;2022-12-18T04:13:33;69.30;;;21.33;;
18796;SDS011;9526;52.612;13.300;2022-12-18T04:16:05;68.90;;;20.50;;
18796;SDS011;9526;52.612;13.300;2022-12-18T04:18:35;69.40;;;22.13;;
18796;SDS011;9526;52.612;13.300;2022-12-18T04:20:59;70.83;;;21.30;;
18796;SDS011;9526;52.612;13.300;2022-12-18T04:23:23;64.67;;;19.97;;
18796;SDS011;9526;52.612;13.300;2022-12-18T04:25:50;72.23;;;22.73;;
18796;SDS011;9526;52.612;13.300;2022-12-18T04:28:27;78.47;;;23.13;;
18796;SDS011;9526;52.612;13.300;2022-12-18T04:30:51;83.37;;;23.53;;
18796;SDS011;9526;52.612;13.300;2022-12-18T04:33:16;91.10;;;25.43;;
18796;SDS011;9526;52.612;13.300;2022-12-18T04:35:41;89.50;;;24.57;;
18796;SDS011;9526;52.612;13.300;2022-12-18T04:38:05;78.77;;;20.57;;
18796;SDS011;9526;52.612;13.300;2022-12-18T04:40:31;77.50;;;22.03;;
18796;SDS011;9526;52.612;13.300;2022-12-18T04:43:03;82.20;;;23.57;;
18796;SDS011;9526;52.612;13.300;2022-12-18T04:45:27;76.47;;;21.63;;
18796;SDS011;9526;52.612;13.300;2022-12-18T04:47:51;36.67;;;10.93;;
18796;SDS011;9526;52.612;13.300;2022-12-18T04:50:15;76.47;;;21.53;;
18796;SDS011;9526;52.612;13.300;2022-12-18T04:52:40;97.70;;;26.43;;
18796;SDS011;9526;52.612;13.300;2022-12-18T04:55:04;92.93;;;26.30;;
18796;SDS011;9526;52.612;13.300;2022-12-18T04:57:29;90.87;;;26.27;;
18796;SDS011;9526;52.612;13.300;2022-12-18T04:59:52;91.83;;;24.60;;
18796;SDS011;9526;52.612;13.300;2022-12-18T05:02:16;96.60;;;26.87;;
18796;SDS011;9526;52.612;13.300;2022-12-18T05:04:40;68.13;;;17.33;;
18796;SDS011;9526;52.612;13.300;2022-12-18T05:07:03;93.13;;;26.80;;
18796;SDS011;9526;52.612;13.300;2022-12-18T05:09:29;97.57;;;27.00;;
18796;SDS011;9526;52.612;13.300;2022-12-18T05:11:52;89.87;;;27.97;;
18796;SDS011;9526;52.612;13.300;2022-12-18T05:14:16;80.30;;;21.23;;
18796;SDS011;9526;52.612;13.300;2022-12-18T05:16:40;91.07;;;26.40;;
18796;SDS011;9526;52.612;13.300;2022-12-18T05:19:04;94.40;;;27.13;;
18796;SDS011;9526;52.612;13.300;2022-12-18T05:21:28;90.00;;;25.43;;
18796;SDS011;9526;52.612;13.300;2022-12-18T05:23:51;108.27;;;28.97;;
18796;SDS011;9526;52.612;13.300;2022-12-18T05:26:17;94.27;;;26.70;;
18796;SDS011;9526;52.612;13.300;2022-12-18T05:28:41;103.60;;;25.50;;
18796;SDS011;9526;52.612;13.300;2022-12-18T05:31:05;105.10;;;28.40;;
18796;SDS011;9526;52.612;13.300;2022-12-18T05:33:30;103.13;;;28.30;;
18796;SDS011;9526;52.612;13.300;2022-12-18T05:35:56;95.60;;;25.50;;
18796;SDS011;9526;52.612;13.300;2022-12-18T05:38:24;100.73;;;28.37;;
18796;SDS011;9526;52.612;13.300;2022-12-18T05:40:50;102.40;;;28.70;;
18796;SDS011;9526;52.612;13.300;2022-12-18T05:43:17;113.57;;;29.67;;
18796;SDS011;9526;52.612;13.300;2022-12-18T05:45:43;100.73;;;29.67;;
18796;SDS011;9526;52.612;13.300;2022-12-18T05:48:07;123.43;;;28.27;;
18796;SDS011;9526;52.612;13.300;2022-12-18T05:50:34;104.37;;;28.63;;
18796;SDS011;9526;52.612;13.300;2022-12-18T05:52:58;98.90;;;27.67;;
18796;SDS011;9526;52.612;13.300;2022-12-18T05:55:22;99.80;;;27.93;;
18796;SDS011;9526;52.612;13.300;2022-12-18T05:57:45;105.70;;;28.63;;
18796;SDS011;9526;52.612;13.300;2022-12-18T06:00:11;100.10;;;28.17;;
18796;SDS011;9526;52.612;13.300;2022-12-18T06:02:37;100.07;;;26.60;;
18796;SDS011;9526;52.612;13.300;2022-12-18T06:05:01;111.50;;;27.07;;
18796;SDS011;9526;52.612;13.300;2022-12-18T06:07:25;102.23;;;28.73;;
18796;SDS011;9526;52.612;13.300;2022-12-18T06:09:48;89.63;;;22.63;;
18796;SDS011;9526;52.612;13.300;2022-12-18T06:12:12;93.40;;;26.80;;
18796;SDS011;9526;52.612;13.300;2022-12-18T06:14:36;107.77;;;27.93;;
18796;SDS011;9526;52.612;13.300;2022-12-18T06:17:01;94.17;;;25.07;;
18796;SDS011;9526;52.612;13.300;2022-12-18T06:19:25;74.87;;;20.87;;
18796;SDS011;9526;52.612;13.300;2022-12-18T06:21:49;87.33;;;23.30;;
18796;SDS011;9526;52.612;13.300;2022-12-18T06:24:12;84.90;;;21.80;;
18796;SDS011;9526;52.612;13.300;2022-12-18T06:26:36;96.33;;;26.20;;
18796;SDS011;9526;52.612;13.300;2022-12-18T06:29:01;93.43;;;25.87;;
18796;SDS011;9526;52.612;13.300;2022-12-18T06:31:25;101.40;;;26.70;;
18796;SDS011;9526;52.612;13.300;2022-12-18T06:33:51;88.83;;;25.70;;
18796;SDS011;9526;52.612;13.300;2022-12-18T06:36:14;92.57;;;25.63;;
18796;SDS011;9526;52.612;13.300;2022-12-18T06:38:39;65.17;;;16.97;;
18796;SDS011;9526;52.612;13.300;2022-12-18T06:41:06;103.77;;;27.40;;
18796;SDS011;9526;52.612;13.300;2022-12-18T06:43:30;81.60;;;21.97;;
18796;SDS011;9526;52.612;13.300;2022-12-18T06:45:57;88.10;;;26.07;;
18796;SDS011;9526;52.612;13.300;2022-12-18T06:48:22;107.10;;;27.77;;
18796;SDS011;9526;52.612;13.300;2022-12-18T06:50:47;99.17;;;27.70;;
18796;SDS011;9526;52.612;13.300;2022-12-18T06:53:11;95.30;;;24.77;;
18796;SDS011;9526;52.612;13.300;2022-12-18T06:55:34;105.30;;;27.07;;
18796;SDS011;9526;52.612;13.300;2022-12-18T06:57:58;93.33;;;26.40;;
18796;SDS011;9526;52.612;13.300;2022-12-18T07:00:22;96.70;;;25.83;;
18796;SDS011;9526;52.612;13.300;2022-12-18T07:02:46;66.27;;;18.40;;
18796;SDS011;9526;52.612;13.300;2022-12-18T07:05:10;93.83;;;25.20;;
18796;SDS011;9526;52.612;13.300;2022-12-18T07:07:35;78.87;;;23.07;;
18796;SDS011;9526;52.612;13.300;2022-12-18T07:09:58;99.77;;;26.13;;
18796;SDS011;9526;52.612;13.300;2022-12-18T07:12:22;80.73;;;23.60;;
18796;SDS011;9526;52.612;13.300;2022-12-18T07:14:46;99.50;;;26.63;;
18796;SDS011;9526;52.612;13.300;2022-12-18T07:17:09;92.90;;;26.10;;
18796;SDS011;9526;52.612;13.300;2022-12-18T07:19:33;92.63;;;24.33;;
18796;SDS011;9526;52.612;13.300;2022-12-18T07:21:57;92.33;;;26.20;;
18796;SDS011;9526;52.612;13.300;2022-12-18T07:24:22;87.37;;;23.93;;
18796;SDS011;9526;52.612;13.300;2022-12-18T07:26:46;70.17;;;20.33;;
18796;SDS011;9526;52.612;13.300;2022-12-18T07:29:10;99.53;;;25.03;;
18796;SDS011;9526;52.612;13.300;2022-12-18T07:31:33;69.17;;;17.67;;
18796;SDS011;9526;52.612;13.300;2022-12-18T07:33:57;89.67;;;25.03;;
18796;SDS011;9526;52.612;13.300;2022-12-18T07:36:22;57.70;;;15.23;;
18796;SDS011;9526;52.612;13.300;2022-12-18T07:38:46;70.57;;;20.83;;
18796;SDS011;9526;52.612;13.300;2022-12-18T07:41:12;76.53;;;21.23;;
18796;SDS011;9526;52.612;13.300;2022-12-18T07:43:37;62.57;;;19.50;;
18796;SDS011;9526;52.612;13.300;2022-12-18T07:46:02;85.07;;;24.70;;
18796;SDS011;9526;52.612;13.300;2022-12-18T07:48:27;87.47;;;24.30;;
18796;SDS011;9526;52.612;13.300;2022-12-18T07:50:51;68.63;;;17.77;;
18796;SDS011;9526;52.612;13.300;2022-12-18T07:53:15;69.23;;;19.77;;
18796;SDS011;9526;52.612;13.300;2022-12-18T07:55:38;58.43;;;16.07;;
18796;SDS011;9526;52.612;13.300;2022-12-18T07:58:24;71.13;;;20.23;;
18796;SDS011;9526;52.612;13.300;2022-12-18T08:00:47;73.50;;;20.23;;
18796;SDS011;9526;52.612;13.300;2022-12-18T08:03:11;70.80;;;21.30;;
18796;SDS011;9526;52.612;13.300;2022-12-18T08:05:38;71.93;;;21.37;;
18796;SDS011;9526;52.612;13.300;2022-12-18T08:08:02;74.23;;;22.37;;
18796;SDS011;9526;52.612;13.300;2022-12-18T08:10:25;75.47;;;22.73;;
18796;SDS011;9526;52.612;13.300;2022-12-18T08:12:49;96.37;;;28.57;;
18796;SDS011;9526;52.612;13.300;2022-12-18T08:15:15;69.93;;;22.90;;
18796;SDS011;9526;52.612;13.300;2022-12-18T08:17:39;78.73;;;22.90;;
18796;SDS011;9526;52.612;13.300;2022-12-18T08:20:03;72.13;;;21.60;;
18796;SDS011;9526;52.612;13.300;2022-12-18T08:22:27;63.57;;;18.30;;
18796;SDS011;9526;52.612;13.300;2022-12-18T08:24:51;93.07;;;24.90;;
18796;SDS011;9526;52.612;13.300;2022-12-18T08:27:14;140.93;;;48.90;;
18796;SDS011;9526;52.612;13.300;2022-12-18T08:29:50;79.83;;;23.57;;
18796;SDS011;9526;52.612;13.300;2022-12-18T08:32:15;115.50;;;37.20;;
18796;SDS011;9526;52.612;13.300;2022-12-18T08:34:39;88.00;;;22.93;;
18796;SDS011;9526;52.612;13.300;2022-12-18T08:37:02;58.63;;;16.47;;
18796;SDS011;9526;52.612;13.300;2022-12-18T08:39:26;87.80;;;24.23;;
18796;SDS011;9526;52.612;13.300;2022-12-18T08:41:49;80.87;;;25.23;;
18796;SDS011;9526;52.612;13.300;2022-12-18T08:44:30;88.20;;;24.53;;
18796;SDS011;9526;52.612;13.300;2022-12-18T08:47:00;90.77;;;27.57;;
18796;SDS011;9526;52.612;13.300;2022-12-18T08:49:25;57.30;;;18.33;;
18796;SDS011;9526;52.612;13.300;2022-12-18T08:51:53;83.30;;;23.47;;
18796;SDS011;9526;52.612;13.300;2022-12-18T08:54:18;90.77;;;24.87;;
18796;SDS011;9526;52.612;13.300;2022-12-18T08:56:42;78.77;;;25.03;;
18796;SDS011;9526;52.612;13.300;2022-12-18T08:59:05;72.30;;;23.13;;
18796;SDS011;9526;52.612;13.300;2022-12-18T09:01:33;81.97;;;24.60;;
18796;SDS011;9526;52.612;13.300;2022-12-18T09:03:57;31.50;;;8.33;;
18796;SDS011;9526;52.612;13.300;2022-12-18T09:06:22;75.97;;;22.60;;
18796;SDS011;9526;52.612;13.300;2022-12-18T09:08:48;76.83;;;23.03;;
18796;SDS011;9526;52.612;13.300;2022-12-18T09:11:12;66.73;;;18.60;;
18796;SDS011;9526;52.612;13.300;2022-12-18T09:13:38;61.27;;;18.20;;
18796;SDS011;9526;52.612;13.300;2022-12-18T09:16:02;85.70;;;23.73;;
18796;SDS011;9526;52.612;13.300;2022-12-18T09:18:26;69.43;;;21.13;;
18796;SDS011;9526;52.612;13.300;2022-12-18T09:20:50;75.43;;;22.47;;
18796;SDS011;9526;52.612;13.300;2022-12-18T09:23:16;76.27;;;23.90;;
18796;SDS011;9526;52.612;13.300;2022-12-18T09:25:39;77.33;;;22.60;;
18796;SDS011;9526;52.612;13.300;2022-12-18T09:28:04;72.33;;;24.17;;
18796;SDS011;9526;52.612;13.300;2022-12-18T09:30:32;40.37;;;13.83;;
18796;SDS011;9526;52.612;13.300;2022-12-18T09:32:56;72.27;;;23.27;;
18796;SDS011;9526;52.612;13.300;2022-12-18T09:35:20;65.40;;;22.07;;
18796;SDS011;9526;52.612;13.300;2022-12-18T09:37:44;62.07;;;18.33;;
18796;SDS011;9526;52.612;13.300;2022-12-18T09:40:12;75.00;;;23.77;;
18796;SDS011;9526;52.612;13.300;2022-12-18T09:42:37;71.90;;;22.70;;
18796;SDS011;9526;52.612;13.300;2022-12-18T09:45:01;71.67;;;22.77;;
18796;SDS011;9526;52.612;13.300;2022-12-18T09:47:27;49.50;;;16.03;;
18796;SDS011;9526;52.612;13.300;2022-12-18T09:49:56;64.10;;;21.03;;
18796;SDS011;9526;52.612;13.300;2022-12-18T09:52:23;62.33;;;18.77;;
18796;SDS011;9526;52.612;13.300;2022-12-18T09:54:53;52.30;;;17.67;;
18796;SDS011;9526;52.612;13.300;2022-12-18T09:57:24;70.37;;;23.27;;
18796;SDS011;9526;52.612;13.300;2022-12-18T09:59:49;71.63;;;22.53;;
18796;SDS011;9526;52.612;13.300;2022-12-18T10:02:19;62.83;;;22.40;;
18796;SDS011;9526;52.612;13.300;2022-12-18T10:04:48;71.07;;;23.80;;
18796;SDS011;9526;52.612;13.300;2022-12-18T10:07:27;60.87;;;21.07;;
18796;SDS011;9526;52.612;13.300;2022-12-18T10:10:03;62.07;;;21.17;;
18796;SDS011;9526;52.612;13.300;2022-12-18T10:12:38;65.57;;;23.40;;
18796;SDS011;9526;52.612;13.300;2022-12-18T10:15:11;65.63;;;22.03;;
18796;SDS011;9526;52.612;13.300;2022-12-18T10:17:45;52.67;;;15.47;;
18796;SDS011;9526;52.612;13.300;2022-12-18T10:20:16;62.10;;;22.57;;
18796;SDS011;9526;52.612;13.300;2022-12-18T10:22:48;60.87;;;19.17;;
18796;SDS011;9526;52.612;13.300;2022-12-18T10:25:22;65.43;;;19.77;;
18796;SDS011;9526;52.612;13.300;2022-12-18T10:27:53;48.50;;;15.73;;
18796;SDS011;9526;52.612;13.300;2022-12-18T10:30:21;63.33;;;20.00;;
18796;SDS011;9526;52.612;13.300;2022-12-18T10:32:46;61.00;;;21.10;;
18796;SDS011;9526;52.612;13.300;2022-12-18T10:35:11;65.50;;;20.73;;
18796;SDS011;9526;52.612;13.300;2022-12-18T10:40:27;58.67;;;19.83;;
18796;SDS011;9526;52.612;13.300;2022-12-18T10:42:59;68.10;;;20.43;;
18796;SDS011;9526;52.612;13.300;2022-12-18T10:45:27;62.30;;;21.83;;
18796;SDS011;9526;52.612;13.300;2022-12-18T10:47:52;70.27;;;23.30;;
18796;SDS011;9526;52.612;13.300;2022-12-18T10:50:18;69.23;;;21.27;;
18796;SDS011;9526;52.612;13.300;2022-12-18T10:53:13;73.03;;;24.03;;
18796;SDS011;9526;52.612;13.300;2022-12-18T10:55:44;70.20;;;23.33;;
18796;SDS011;9526;52.612;13.300;2022-12-18T10:58:15;69.00;;;22.37;;
18796;SDS011;9526;52.612;13.300;2022-12-18T11:00:51;64.93;;;21.77;;
18796;SDS011;9526;52.612;13.300;2022-12-18T11:03:31;76.00;;;22.73;;
18796;SDS011;9526;52.612;13.300;2022-12-18T11:06:01;74.37;;;22.50;;
18796;SDS011;9526;52.612;13.300;2022-12-18T11:08:28;68.83;;;19.73;;
18796;SDS011;9526;52.612;13.300;2022-12-18T11:10:51;71.67;;;22.40;;
18796;SDS011;9526;52.612;13.300;2022-12-18T11:13:17;60.37;;;19.03;;
18796;SDS011;9526;52.612;13.300;2022-12-18T11:15:44;68.60;;;23.57;;
18796;SDS011;9526;52.612;13.300;2022-12-18T11:18:15;61.67;;;20.10;;
18796;SDS011;9526;52.612;13.300;2022-12-18T11:20:42;70.43;;;23.07;;
18796;SDS011;9526;52.612;13.300;2022-12-18T11:23:19;76.47;;;24.83;;
18796;SDS011;9526;52.612;13.300;2022-12-18T11:25:50;66.03;;;23.00;;
18796;SDS011;9526;52.612;13.300;2022-12-18T11:28:26;68.87;;;23.07;;
18796;SDS011;9526;52.612;13.300;2022-12-18T11:31:16;61.13;;;21.33;;
18796;SDS011;9526;52.612;13.300;2022-12-18T11:33:46;67.83;;;21.63;;
18796;SDS011;9526;52.612;13.300;2022-12-18T11:36:46;70.27;;;23.73;;
18796;SDS011;9526;52.612;13.300;2022-12-18T11:39:12;64.47;;;20.13;;
18796;SDS011;9526;52.612;13.300;2022-12-18T11:41:46;72.10;;;22.40;;
18796;SDS011;9526;52.612;13.300;2022-12-18T11:44:36;76.90;;;23.47;;
18796;SDS011;9526;52.612;13.300;2022-12-18T11:47:09;66.93;;;22.33;;
18796;SDS011;9526;52.612;13.300;2022-12-18T11:49:44;71.87;;;22.10;;
18796;SDS011;9526;52.612;13.300;2022-12-18T11:52:14;71.63;;;23.87;;
18796;SDS011;9526;52.612;13.300;2022-12-18T11:54:43;64.67;;;20.33;;
18796;SDS011;9526;52.612;13.300;2022-12-18T11:57:12;77.27;;;24.90;;
18796;SDS011;9526;52.612;13.300;2022-12-18T11:59:51;73.50;;;22.87;;
18796;SDS011;9526;52.612;13.300;2022-12-18T12:02:41;77.67;;;23.93;;
18796;SDS011;9526;52.612;13.300;2022-12-18T12:05:38;66.30;;;20.73;;
18796;SDS011;9526;52.612;13.300;2022-12-18T12:08:15;75.27;;;23.70;;
18796;SDS011;9526;52.612;13.300;2022-12-18T12:10:51;52.47;;;17.77;;
18796;SDS011;9526;52.612;13.300;2022-12-18T12:13:29;63.70;;;20.90;;
18796;SDS011;9526;52.612;13.300;2022-12-18T12:16:11;74.77;;;21.77;;
18796;SDS011;9526;52.612;13.300;2022-12-18T12:18:45;56.83;;;19.77;;
18796;SDS011;9526;52.612;13.300;2022-12-18T12:21:22;66.73;;;21.43;;
18796;SDS011;9526;52.612;13.300;2022-12-18T12:23:53;66.10;;;21.80;;
18796;SDS011;9526;52.612;13.300;2022-12-18T12:26:26;59.90;;;20.63;;
18796;SDS011;9526;52.612;13.300;2022-12-18T12:29:00;70.37;;;23.23;;
18796;SDS011;9526;52.612;13.300;2022-12-18T12:31:46;61.27;;;17.50;;
18796;SDS011;9526;52.612;13.300;2022-12-18T12:34:31;67.97;;;22.57;;
18796;SDS011;9526;52.612;13.300;2022-12-18T12:37:10;52.33;;;18.00;;
18796;SDS011;9526;52.612;13.300;2022-12-18T12:40:02;60.67;;;19.63;;
18796;SDS011;9526;52.612;13.300;2022-12-18T12:42:47;57.47;;;20.23;;
18796;SDS011;9526;52.612;13.300;2022-12-18T12:45:37;56.83;;;19.37;;
18796;SDS011;9526;52.612;13.300;2022-12-18T12:48:11;48.73;;;15.73;;
18796;SDS011;9526;52.612;13.300;2022-12-18T12:50:42;55.57;;;19.70;;
18796;SDS011;9526;52.612;13.300;2022-12-18T12:53:07;49.43;;;18.03;;
18796;SDS011;9526;52.612;13.300;2022-12-18T12:55:40;60.27;;;20.43;;
18796;SDS011;9526;52.612;13.300;2022-12-18T12:58:07;50.13;;;16.93;;
18796;SDS011;9526;52.612;13.300;2022-12-18T13:00:41;47.33;;;17.80;;
18796;SDS011;9526;52.612;13.300;2022-12-18T13:03:22;56.17;;;17.67;;
18796;SDS011;9526;52.612;13.300;2022-12-18T13:05:56;55.13;;;18.87;;
18796;SDS011;9526;52.612;13.300;2022-12-18T13:08:25;58.83;;;20.37;;
18796;SDS011;9526;52.612;13.300;2022-12-18T13:11:12;57.00;;;19.57;;
18796;SDS011;9526;52.612;13.300;2022-12-18T13:14:21;56.13;;;19.50;;
18796;SDS011;9526;52.612;13.300;2022-12-18T13:16:49;65.20;;;20.57;;
18796;SDS011;9526;52.612;13.300;2022-12-18T13:19:20;60.20;;;21.20;;
18796;SDS011;9526;52.612;13.300;2022-12-18T13:21:51;64.70;;;24.20;;
18796;SDS011;9526;52.612;13.300;2022-12-18T13:24:21;36.63;;;12.93;;
18796;SDS011;9526;52.612;13.300;2022-12-18T13:26:49;55.97;;;22.27;;
18796;SDS011;9526;52.612;13.300;2022-12-18T13:29:15;55.53;;;20.97;;
18796;SDS011;9526;52.612;13.300;2022-12-18T13:32:15;52.47;;;18.33;;
18796;SDS011;9526;52.612;13.300;2022-12-18T13:34:44;52.50;;;17.63;;
18796;SDS011;9526;52.612;13.300;2022-12-18T13:43:24;65.13;;;20.20;;
18796;SDS011;9526;52.612;13.300;2022-12-18T13:46:04;60.67;;;20.60;;
18796;SDS011;9526;52.612;13.300;2022-12-18T13:48:41;49.87;;;17.93;;
18796;SDS011;9526;52.612;13.300;2022-12-18T13:51:16;61.57;;;21.70;;
18796;SDS011;9526;52.612;13.300;2022-12-18T13:53:42;41.10;;;14.77;;
18796;SDS011;9526;52.612;13.300;2022-12-18T13:56:15;69.30;;;24.00;;
18796;SDS011;9526;52.612;13.300;2022-12-18T13:58:45;58.33;;;20.53;;
18796;SDS011;9526;52.612;13.300;2022-12-18T14:01:17;58.83;;;21.87;;
18796;SDS011;9526;52.612;13.300;2022-12-18T14:03:46;51.93;;;18.67;;
18796;SDS011;9526;52.612;13.300;2022-12-18T14:06:10;48.37;;;17.87;;
18796;SDS011;9526;52.612;13.300;2022-12-18T14:08:38;64.07;;;23.10;;
18796;SDS011;9526;52.612;13.300;2022-12-18T14:11:05;54.27;;;21.23;;
18796;SDS011;9526;52.612;13.300;2022-12-18T14:13:32;57.93;;;22.60;;
18796;SDS011;9526;52.612;13.300;2022-12-18T14:16:00;59.80;;;22.77;;
18796;SDS011;9526;52.612;13.300;2022-12-18T14:18:29;63.70;;;24.53;;
18796;SDS011;9526;52.612;13.300;2022-12-18T14:21:02;63.77;;;24.37;;
18796;SDS011;9526;52.612;13.300;2022-12-18T14:23:28;70.33;;;25.10;;
18796;SDS011;9526;52.612;13.300;2022-12-18T14:25:55;66.00;;;24.37;;
18796;SDS011;9526;52.612;13.300;2022-12-18T14:28:25;57.67;;;22.97;;
18796;SDS011;9526;52.612;13.300;2022-12-18T14:30:49;53.50;;;22.07;;
18796;SDS011;9526;52.612;13.300;2022-12-18T14:33:14;41.10;;;16.73;;
18796;SDS011;9526;52.612;13.300;2022-12-18T14:35:43;52.73;;;21.07;;
18796;SDS011;9526;52.612;13.300;2022-12-18T14:38:19;52.63;;;20.60;;
18796;SDS011;9526;52.612;13.300;2022-12-18T14:40:51;63.47;;;23.60;;